Main page
METAR-TAF:

METAR-TAF

Airports :

Salalah International Airport

Salalah, Oman

latitude: 17-02N, longitude: 054-05E, elevation: 20 m

Current weather observation

The report was made 1 hour and 13 minutes ago, at 02:50 UTC
Wind 3 kt from the North
Temperature 28°C
Humidity 79%
Pressure 1006 hPa
Visibility 10 km or more
Scattered clouds at a height of 2500 ft

METAR: OOSA 260250Z 01003KT 9999 SCT025 28/24 Q1006 NOSIG

Time: 08:03 (04:03 UTC)

Forecast

The report was made 4 hours and 23 minutes ago, at 23:40 UTC
Forecast valid from 26 at 00 UTC to 27 at 06 UTC
Wind 3 kt from variable directions
Visibility 10 km or more
Broken clouds at a height of 2500 ft
Becoming
from 26 at 05 UTC to 26 at 07 UTC
Wind 15 kt from the South
Scattered clouds at a height of 2500 ft
Becoming
from 26 at 16 UTC to 26 at 18 UTC
Wind 3 kt from variable directions
Broken clouds at a height of 2500 ft

TAF: OOSA 252340Z 2600/2706 VRB03KT 9999 BKN025 BECMG 2605/2607 19015KT SCT025 BECMG 2616/2618 VRB03KT BKN025

Weather observations and forecasts of more than 4000 airports (METAR and TAF reports).

The available stations are represented by yellow and red dots on the map.

Hover mouse over dot to see the name of the station.

Then click to see weather observations and forecasts.

To change the map : click on the green buttons with a black cross to zoom in, on the green button with a dash to zoom out, or on the green arrows for adjacent maps.


METAR-TAF: